sensor_id;sensor_type;location;lat;lon;timestamp;P1;durP1;ratioP1;P2;durP2;ratioP2
26908;SDS011;14477;51.038;4.588;2024-03-06T00:02:07;5.67;;;3.70;;
26908;SDS011;14477;51.038;4.588;2024-03-06T00:04:33;5.28;;;3.53;;
26908;SDS011;14477;51.038;4.588;2024-03-06T00:06:59;6.68;;;3.55;;
26908;SDS011;14477;51.038;4.588;2024-03-06T00:09:25;6.80;;;3.97;;
26908;SDS011;14477;51.038;4.588;2024-03-06T00:11:54;6.15;;;3.83;;
26908;SDS011;14477;51.038;4.588;2024-03-06T00:14:20;6.43;;;3.83;;
26908;SDS011;14477;51.038;4.588;2024-03-06T00:16:49;6.53;;;3.60;;
26908;SDS011;14477;51.038;4.588;2024-03-06T00:19:18;5.80;;;3.30;;
26908;SDS011;14477;51.038;4.588;2024-03-06T00:21:45;6.20;;;3.92;;
26908;SDS011;14477;51.038;4.588;2024-03-06T00:24:14;6.33;;;3.70;;
26908;SDS011;14477;51.038;4.588;2024-03-06T00:26:41;6.82;;;3.65;;
26908;SDS011;14477;51.038;4.588;2024-03-06T00:29:08;7.25;;;3.70;;
26908;SDS011;14477;51.038;4.588;2024-03-06T00:31:34;5.60;;;3.70;;
26908;SDS011;14477;51.038;4.588;2024-03-06T00:34:00;6.30;;;3.60;;
26908;SDS011;14477;51.038;4.588;2024-03-06T00:36:25;5.10;;;3.57;;
26908;SDS011;14477;51.038;4.588;2024-03-06T00:38:51;5.88;;;3.45;;
26908;SDS011;14477;51.038;4.588;2024-03-06T00:41:17;5.30;;;3.50;;
26908;SDS011;14477;51.038;4.588;2024-03-06T00:43:43;6.38;;;3.55;;
26908;SDS011;14477;51.038;4.588;2024-03-06T00:46:08;7.73;;;3.60;;
26908;SDS011;14477;51.038;4.588;2024-03-06T00:48:34;6.53;;;3.70;;
26908;SDS011;14477;51.038;4.588;2024-03-06T00:51:00;4.97;;;3.43;;
26908;SDS011;14477;51.038;4.588;2024-03-06T00:53:25;5.57;;;3.35;;
26908;SDS011;14477;51.038;4.588;2024-03-06T00:55:51;5.87;;;3.33;;
26908;SDS011;14477;51.038;4.588;2024-03-06T00:58:17;8.00;;;3.45;;
26908;SDS011;14477;51.038;4.588;2024-03-06T01:00:43;5.37;;;3.20;;
26908;SDS011;14477;51.038;4.588;2024-03-06T01:03:08;5.90;;;3.47;;
26908;SDS011;14477;51.038;4.588;2024-03-06T01:05:34;4.70;;;3.10;;
26908;SDS011;14477;51.038;4.588;2024-03-06T01:08:00;5.82;;;3.50;;
26908;SDS011;14477;51.038;4.588;2024-03-06T01:10:26;5.78;;;3.30;;
26908;SDS011;14477;51.038;4.588;2024-03-06T01:12:51;4.93;;;3.20;;
26908;SDS011;14477;51.038;4.588;2024-03-06T01:15:17;5.90;;;3.08;;
26908;SDS011;14477;51.038;4.588;2024-03-06T01:17:43;6.00;;;3.20;;
26908;SDS011;14477;51.038;4.588;2024-03-06T01:20:09;4.65;;;3.00;;
26908;SDS011;14477;51.038;4.588;2024-03-06T01:25:57;4.67;;;2.90;;
26908;SDS011;14477;51.038;4.588;2024-03-06T01:28:23;4.93;;;2.83;;
26908;SDS011;14477;51.038;4.588;2024-03-06T01:30:49;5.23;;;3.07;;
26908;SDS011;14477;51.038;4.588;2024-03-06T01:33:14;4.65;;;2.95;;
26908;SDS011;14477;51.038;4.588;2024-03-06T01:35:40;4.77;;;2.90;;
26908;SDS011;14477;51.038;4.588;2024-03-06T01:38:06;4.85;;;2.95;;
26908;SDS011;14477;51.038;4.588;2024-03-06T01:40:31;4.13;;;2.77;;
26908;SDS011;14477;51.038;4.588;2024-03-06T01:42:57;4.15;;;2.85;;
26908;SDS011;14477;51.038;4.588;2024-03-06T01:45:23;4.57;;;2.83;;
26908;SDS011;14477;51.038;4.588;2024-03-06T01:47:48;4.40;;;2.90;;
26908;SDS011;14477;51.038;4.588;2024-03-06T01:50:15;5.20;;;2.90;;
26908;SDS011;14477;51.038;4.588;2024-03-06T01:52:42;4.40;;;3.20;;
26908;SDS011;14477;51.038;4.588;2024-03-06T01:55:08;5.32;;;3.00;;
26908;SDS011;14477;51.038;4.588;2024-03-06T01:57:35;6.68;;;3.20;;
26908;SDS011;14477;51.038;4.588;2024-03-06T02:00:03;4.97;;;3.08;;
26908;SDS011;14477;51.038;4.588;2024-03-06T02:02:30;4.50;;;2.88;;
26908;SDS011;14477;51.038;4.588;2024-03-06T02:04:56;4.93;;;2.83;;
26908;SDS011;14477;51.038;4.588;2024-03-06T02:07:24;5.10;;;3.05;;
26908;SDS011;14477;51.038;4.588;2024-03-06T02:09:50;5.88;;;3.47;;
26908;SDS011;14477;51.038;4.588;2024-03-06T02:12:17;5.93;;;3.10;;
26908;SDS011;14477;51.038;4.588;2024-03-06T02:14:43;6.10;;;3.07;;
26908;SDS011;14477;51.038;4.588;2024-03-06T02:17:09;4.95;;;2.92;;
26908;SDS011;14477;51.038;4.588;2024-03-06T02:19:41;5.10;;;3.05;;
26908;SDS011;14477;51.038;4.588;2024-03-06T02:22:08;5.47;;;2.80;;
26908;SDS011;14477;51.038;4.588;2024-03-06T02:24:35;6.30;;;3.22;;
26908;SDS011;14477;51.038;4.588;2024-03-06T02:27:02;4.80;;;3.05;;
26908;SDS011;14477;51.038;4.588;2024-03-06T02:29:30;5.25;;;3.00;;
26908;SDS011;14477;51.038;4.588;2024-03-06T02:31:57;5.30;;;3.17;;
26908;SDS011;14477;51.038;4.588;2024-03-06T02:34:23;4.07;;;2.73;;
26908;SDS011;14477;51.038;4.588;2024-03-06T02:36:50;4.88;;;3.10;;
26908;SDS011;14477;51.038;4.588;2024-03-06T02:39:17;4.82;;;2.85;;
26908;SDS011;14477;51.038;4.588;2024-03-06T02:41:42;4.57;;;2.70;;
26908;SDS011;14477;51.038;4.588;2024-03-06T02:44:08;4.93;;;2.92;;
26908;SDS011;14477;51.038;4.588;2024-03-06T02:46:34;4.87;;;2.70;;
26908;SDS011;14477;51.038;4.588;2024-03-06T02:49:00;4.18;;;2.70;;
26908;SDS011;14477;51.038;4.588;2024-03-06T02:51:26;4.93;;;2.95;;
26908;SDS011;14477;51.038;4.588;2024-03-06T02:53:52;5.83;;;2.90;;
26908;SDS011;14477;51.038;4.588;2024-03-06T02:56:18;4.40;;;2.50;;
26908;SDS011;14477;51.038;4.588;2024-03-06T02:58:45;4.47;;;2.60;;
26908;SDS011;14477;51.038;4.588;2024-03-06T03:01:11;5.35;;;2.40;;
26908;SDS011;14477;51.038;4.588;2024-03-06T03:03:40;4.80;;;2.72;;
26908;SDS011;14477;51.038;4.588;2024-03-06T03:06:07;4.10;;;2.40;;
26908;SDS011;14477;51.038;4.588;2024-03-06T03:08:32;4.18;;;2.47;;
26908;SDS011;14477;51.038;4.588;2024-03-06T03:10:58;3.70;;;2.43;;
26908;SDS011;14477;51.038;4.588;2024-03-06T03:13:24;4.25;;;2.40;;
26908;SDS011;14477;51.038;4.588;2024-03-06T03:15:50;4.43;;;2.33;;
26908;SDS011;14477;51.038;4.588;2024-03-06T03:18:16;4.15;;;2.50;;
26908;SDS011;14477;51.038;4.588;2024-03-06T03:20:43;4.90;;;2.70;;
26908;SDS011;14477;51.038;4.588;2024-03-06T03:23:08;3.95;;;2.38;;
26908;SDS011;14477;51.038;4.588;2024-03-06T03:25:37;4.37;;;2.53;;
26908;SDS011;14477;51.038;4.588;2024-03-06T03:28:03;4.40;;;2.67;;
26908;SDS011;14477;51.038;4.588;2024-03-06T03:30:29;4.78;;;2.60;;
26908;SDS011;14477;51.038;4.588;2024-03-06T03:32:57;4.10;;;2.47;;
26908;SDS011;14477;51.038;4.588;2024-03-06T03:35:23;4.73;;;2.90;;
26908;SDS011;14477;51.038;4.588;2024-03-06T03:37:53;5.15;;;2.75;;
26908;SDS011;14477;51.038;4.588;2024-03-06T03:40:20;4.85;;;2.63;;
26908;SDS011;14477;51.038;4.588;2024-03-06T03:42:46;5.53;;;2.78;;
26908;SDS011;14477;51.038;4.588;2024-03-06T03:45:12;4.93;;;2.47;;
26908;SDS011;14477;51.038;4.588;2024-03-06T03:47:39;4.30;;;2.53;;
26908;SDS011;14477;51.038;4.588;2024-03-06T03:50:08;4.00;;;2.40;;
26908;SDS011;14477;51.038;4.588;2024-03-06T03:52:34;5.10;;;2.67;;
26908;SDS011;14477;51.038;4.588;2024-03-06T03:55:00;3.97;;;2.37;;
26908;SDS011;14477;51.038;4.588;2024-03-06T03:57:26;5.23;;;2.80;;
26908;SDS011;14477;51.038;4.588;2024-03-06T03:59:52;5.00;;;2.70;;
26908;SDS011;14477;51.038;4.588;2024-03-06T04:02:18;4.22;;;2.40;;
26908;SDS011;14477;51.038;4.588;2024-03-06T04:04:44;4.53;;;2.67;;
26908;SDS011;14477;51.038;4.588;2024-03-06T04:07:10;4.85;;;2.60;;
26908;SDS011;14477;51.038;4.588;2024-03-06T04:09:36;4.28;;;2.47;;
26908;SDS011;14477;51.038;4.588;2024-03-06T04:12:04;4.73;;;2.50;;
26908;SDS011;14477;51.038;4.588;2024-03-06T04:14:30;4.82;;;2.38;;
26908;SDS011;14477;51.038;4.588;2024-03-06T04:16:56;3.83;;;2.37;;
26908;SDS011;14477;51.038;4.588;2024-03-06T04:19:21;4.28;;;2.55;;
26908;SDS011;14477;51.038;4.588;2024-03-06T04:21:47;4.13;;;2.40;;
26908;SDS011;14477;51.038;4.588;2024-03-06T04:24:13;4.50;;;2.50;;
26908;SDS011;14477;51.038;4.588;2024-03-06T04:26:39;3.90;;;2.15;;
26908;SDS011;14477;51.038;4.588;2024-03-06T04:29:04;4.13;;;2.30;;
26908;SDS011;14477;51.038;4.588;2024-03-06T04:31:30;4.80;;;2.50;;
26908;SDS011;14477;51.038;4.588;2024-03-06T04:33:56;3.77;;;2.33;;
26908;SDS011;14477;51.038;4.588;2024-03-06T04:36:21;3.70;;;2.15;;
26908;SDS011;14477;51.038;4.588;2024-03-06T04:38:47;3.83;;;2.23;;
26908;SDS011;14477;51.038;4.588;2024-03-06T04:41:13;3.80;;;2.42;;
26908;SDS011;14477;51.038;4.588;2024-03-06T04:43:39;3.55;;;2.08;;
26908;SDS011;14477;51.038;4.588;2024-03-06T04:46:05;4.87;;;2.40;;
26908;SDS011;14477;51.038;4.588;2024-03-06T04:48:31;3.17;;;2.05;;
26908;SDS011;14477;51.038;4.588;2024-03-06T04:50:56;2.93;;;1.90;;
26908;SDS011;14477;51.038;4.588;2024-03-06T04:53:22;4.10;;;2.35;;
26908;SDS011;14477;51.038;4.588;2024-03-06T04:55:48;3.37;;;1.70;;
26908;SDS011;14477;51.038;4.588;2024-03-06T04:58:13;3.03;;;2.07;;
26908;SDS011;14477;51.038;4.588;2024-03-06T05:00:39;3.45;;;1.95;;
26908;SDS011;14477;51.038;4.588;2024-03-06T05:03:05;3.90;;;2.08;;
26908;SDS011;14477;51.038;4.588;2024-03-06T05:05:30;3.27;;;2.03;;
26908;SDS011;14477;51.038;4.588;2024-03-06T05:07:57;3.78;;;2.10;;
26908;SDS011;14477;51.038;4.588;2024-03-06T05:10:23;3.05;;;1.92;;
26908;SDS011;14477;51.038;4.588;2024-03-06T05:12:49;4.27;;;2.27;;
26908;SDS011;14477;51.038;4.588;2024-03-06T05:15:15;3.67;;;2.20;;
26908;SDS011;14477;51.038;4.588;2024-03-06T05:17:41;3.92;;;2.28;;
26908;SDS011;14477;51.038;4.588;2024-03-06T05:20:08;4.78;;;2.40;;
26908;SDS011;14477;51.038;4.588;2024-03-06T05:22:37;4.00;;;2.27;;
26908;SDS011;14477;51.038;4.588;2024-03-06T05:25:03;3.88;;;2.30;;
26908;SDS011;14477;51.038;4.588;2024-03-06T05:27:30;4.25;;;2.13;;
26908;SDS011;14477;51.038;4.588;2024-03-06T05:29:57;3.88;;;2.10;;
26908;SDS011;14477;51.038;4.588;2024-03-06T05:32:22;3.77;;;2.13;;
26908;SDS011;14477;51.038;4.588;2024-03-06T05:34:48;4.20;;;2.20;;
26908;SDS011;14477;51.038;4.588;2024-03-06T05:37:14;3.80;;;2.20;;
26908;SDS011;14477;51.038;4.588;2024-03-06T05:39:39;4.75;;;2.13;;
26908;SDS011;14477;51.038;4.588;2024-03-06T05:42:07;4.70;;;2.30;;
26908;SDS011;14477;51.038;4.588;2024-03-06T05:44:33;3.88;;;2.30;;
26908;SDS011;14477;51.038;4.588;2024-03-06T05:47:00;4.43;;;2.50;;
26908;SDS011;14477;51.038;4.588;2024-03-06T05:49:26;4.60;;;2.40;;
26908;SDS011;14477;51.038;4.588;2024-03-06T05:51:52;3.78;;;2.15;;
26908;SDS011;14477;51.038;4.588;2024-03-06T05:54:21;4.60;;;2.40;;
26908;SDS011;14477;51.038;4.588;2024-03-06T05:56:48;4.30;;;2.35;;
26908;SDS011;14477;51.038;4.588;2024-03-06T05:59:19;3.60;;;2.35;;
26908;SDS011;14477;51.038;4.588;2024-03-06T06:01:45;4.85;;;2.60;;
26908;SDS011;14477;51.038;4.588;2024-03-06T06:04:12;4.80;;;2.47;;
26908;SDS011;14477;51.038;4.588;2024-03-06T06:06:39;4.00;;;2.27;;
26908;SDS011;14477;51.038;4.588;2024-03-06T06:09:05;4.07;;;2.25;;
26908;SDS011;14477;51.038;4.588;2024-03-06T06:11:31;4.53;;;2.30;;
26908;SDS011;14477;51.038;4.588;2024-03-06T06:14:01;5.43;;;2.60;;
26908;SDS011;14477;51.038;4.588;2024-03-06T06:16:26;5.23;;;2.60;;
26908;SDS011;14477;51.038;4.588;2024-03-06T06:18:52;4.57;;;2.55;;
26908;SDS011;14477;51.038;4.588;2024-03-06T06:21:18;5.38;;;2.47;;
26908;SDS011;14477;51.038;4.588;2024-03-06T06:23:44;4.57;;;2.67;;
26908;SDS011;14477;51.038;4.588;2024-03-06T06:26:10;4.50;;;2.38;;
26908;SDS011;14477;51.038;4.588;2024-03-06T06:28:36;5.30;;;2.60;;
26908;SDS011;14477;51.038;4.588;2024-03-06T06:31:02;4.55;;;2.90;;
26908;SDS011;14477;51.038;4.588;2024-03-06T06:33:29;4.10;;;2.30;;
26908;SDS011;14477;51.038;4.588;2024-03-06T06:35:55;4.05;;;2.28;;
26908;SDS011;14477;51.038;4.588;2024-03-06T06:38:21;4.17;;;2.50;;
26908;SDS011;14477;51.038;4.588;2024-03-06T06:40:47;4.25;;;2.28;;
26908;SDS011;14477;51.038;4.588;2024-03-06T06:43:13;4.72;;;2.17;;
26908;SDS011;14477;51.038;4.588;2024-03-06T06:45:40;4.85;;;2.45;;
26908;SDS011;14477;51.038;4.588;2024-03-06T06:48:06;4.40;;;2.30;;
26908;SDS011;14477;51.038;4.588;2024-03-06T06:50:34;4.25;;;2.25;;
26908;SDS011;14477;51.038;4.588;2024-03-06T06:53:00;4.22;;;2.80;;
26908;SDS011;14477;51.038;4.588;2024-03-06T06:55:26;4.20;;;2.35;;
26908;SDS011;14477;51.038;4.588;2024-03-06T06:57:52;4.73;;;2.37;;
26908;SDS011;14477;51.038;4.588;2024-03-06T07:00:17;3.78;;;2.42;;
26908;SDS011;14477;51.038;4.588;2024-03-06T07:02:44;4.20;;;2.65;;
26908;SDS011;14477;51.038;4.588;2024-03-06T07:05:10;3.80;;;2.33;;
26908;SDS011;14477;51.038;4.588;2024-03-06T07:07:37;5.18;;;2.80;;
26908;SDS011;14477;51.038;4.588;2024-03-06T07:10:03;4.53;;;2.72;;
26908;SDS011;14477;51.038;4.588;2024-03-06T07:12:30;5.50;;;3.15;;
26908;SDS011;14477;51.038;4.588;2024-03-06T07:14:56;5.47;;;3.13;;
26908;SDS011;14477;51.038;4.588;2024-03-06T07:17:22;6.10;;;3.30;;
26908;SDS011;14477;51.038;4.588;2024-03-06T07:19:48;6.40;;;3.75;;
26908;SDS011;14477;51.038;4.588;2024-03-06T07:22:14;7.72;;;4.35;;
26908;SDS011;14477;51.038;4.588;2024-03-06T07:24:40;7.83;;;4.37;;
26908;SDS011;14477;51.038;4.588;2024-03-06T07:27:06;8.75;;;4.38;;
26908;SDS011;14477;51.038;4.588;2024-03-06T07:29:34;7.25;;;4.00;;
26908;SDS011;14477;51.038;4.588;2024-03-06T07:32:01;7.30;;;4.00;;
26908;SDS011;14477;51.038;4.588;2024-03-06T07:34:28;6.97;;;3.85;;
26908;SDS011;14477;51.038;4.588;2024-03-06T07:36:54;6.67;;;3.73;;
26908;SDS011;14477;51.038;4.588;2024-03-06T07:39:20;7.05;;;4.03;;
26908;SDS011;14477;51.038;4.588;2024-03-06T07:41:46;5.20;;;3.30;;
26908;SDS011;14477;51.038;4.588;2024-03-06T07:44:12;5.63;;;3.43;;
26908;SDS011;14477;51.038;4.588;2024-03-06T07:46:38;5.70;;;3.38;;
26908;SDS011;14477;51.038;4.588;2024-03-06T07:49:06;6.30;;;3.10;;
26908;SDS011;14477;51.038;4.588;2024-03-06T07:51:32;6.18;;;3.10;;
26908;SDS011;14477;51.038;4.588;2024-03-06T07:53:58;5.10;;;3.17;;
26908;SDS011;14477;51.038;4.588;2024-03-06T07:56:27;5.88;;;3.42;;
26908;SDS011;14477;51.038;4.588;2024-03-06T07:58:53;4.40;;;2.97;;
26908;SDS011;14477;51.038;4.588;2024-03-06T08:01:19;6.32;;;3.30;;
26908;SDS011;14477;51.038;4.588;2024-03-06T08:03:48;4.37;;;2.90;;
26908;SDS011;14477;51.038;4.588;2024-03-06T08:06:14;4.10;;;2.70;;
26908;SDS011;14477;51.038;4.588;2024-03-06T08:08:41;4.22;;;3.08;;
26908;SDS011;14477;51.038;4.588;2024-03-06T08:11:09;4.07;;;2.53;;
26908;SDS011;14477;51.038;4.588;2024-03-06T08:13:36;5.00;;;2.85;;
26908;SDS011;14477;51.038;4.588;2024-03-06T08:16:03;4.97;;;2.60;;
26908;SDS011;14477;51.038;4.588;2024-03-06T08:18:29;4.55;;;2.53;;
26908;SDS011;14477;51.038;4.588;2024-03-06T08:20:56;3.55;;;2.40;;
26908;SDS011;14477;51.038;4.588;2024-03-06T08:23:22;3.70;;;2.40;;
26908;SDS011;14477;51.038;4.588;2024-03-06T08:25:48;3.77;;;2.10;;
26908;SDS011;14477;51.038;4.588;2024-03-06T08:28:14;3.15;;;2.05;;
26908;SDS011;14477;51.038;4.588;2024-03-06T08:30:40;3.65;;;2.20;;
26908;SDS011;14477;51.038;4.588;2024-03-06T08:33:06;3.35;;;2.47;;
26908;SDS011;14477;51.038;4.588;2024-03-06T08:35:32;3.85;;;2.35;;
26908;SDS011;14477;51.038;4.588;2024-03-06T08:37:59;4.00;;;2.20;;
26908;SDS011;14477;51.038;4.588;2024-03-06T08:40:25;3.33;;;2.30;;
26908;SDS011;14477;51.038;4.588;2024-03-06T08:42:53;3.78;;;2.38;;
26908;SDS011;14477;51.038;4.588;2024-03-06T08:45:19;4.13;;;2.35;;
26908;SDS011;14477;51.038;4.588;2024-03-06T08:47:46;3.70;;;2.30;;
26908;SDS011;14477;51.038;4.588;2024-03-06T08:50:13;4.33;;;2.60;;
26908;SDS011;14477;51.038;4.588;2024-03-06T08:52:39;3.50;;;2.40;;
26908;SDS011;14477;51.038;4.588;2024-03-06T08:55:06;3.30;;;2.20;;
26908;SDS011;14477;51.038;4.588;2024-03-06T08:57:35;2.95;;;1.98;;
26908;SDS011;14477;51.038;4.588;2024-03-06T09:00:02;3.57;;;2.27;;
26908;SDS011;14477;51.038;4.588;2024-03-06T09:02:28;3.85;;;2.15;;
26908;SDS011;14477;51.038;4.588;2024-03-06T09:04:54;3.78;;;2.22;;
26908;SDS011;14477;51.038;4.588;2024-03-06T09:07:20;3.92;;;2.35;;
26908;SDS011;14477;51.038;4.588;2024-03-06T09:09:48;3.40;;;2.28;;
26908;SDS011;14477;51.038;4.588;2024-03-06T09:12:15;3.90;;;2.30;;
26908;SDS011;14477;51.038;4.588;2024-03-06T09:14:41;3.58;;;2.30;;
26908;SDS011;14477;51.038;4.588;2024-03-06T09:17:07;3.58;;;2.35;;
26908;SDS011;14477;51.038;4.588;2024-03-06T09:19:39;4.47;;;2.55;;
26908;SDS011;14477;51.038;4.588;2024-03-06T09:22:05;3.70;;;2.50;;
26908;SDS011;14477;51.038;4.588;2024-03-06T09:24:32;3.70;;;2.40;;
26908;SDS011;14477;51.038;4.588;2024-03-06T09:26:58;4.13;;;2.58;;
26908;SDS011;14477;51.038;4.588;2024-03-06T09:29:24;4.10;;;2.60;;
26908;SDS011;14477;51.038;4.588;2024-03-06T09:31:49;4.00;;;2.45;;
26908;SDS011;14477;51.038;4.588;2024-03-06T09:34:15;4.70;;;2.70;;
26908;SDS011;14477;51.038;4.588;2024-03-06T09:36:45;4.03;;;2.30;;
26908;SDS011;14477;51.038;4.588;2024-03-06T09:39:12;4.43;;;2.50;;
26908;SDS011;14477;51.038;4.588;2024-03-06T09:41:41;3.17;;;2.45;;
26908;SDS011;14477;51.038;4.588;2024-03-06T09:44:11;3.33;;;2.00;;
26908;SDS011;14477;51.038;4.588;2024-03-06T09:46:41;3.90;;;2.40;;
26908;SDS011;14477;51.038;4.588;2024-03-06T09:49:09;3.10;;;2.30;;
26908;SDS011;14477;51.038;4.588;2024-03-06T09:51:45;2.95;;;2.28;;
26908;SDS011;14477;51.038;4.588;2024-03-06T09:54:12;3.92;;;2.20;;
26908;SDS011;14477;51.038;4.588;2024-03-06T09:56:47;3.80;;;2.20;;
26908;SDS011;14477;51.038;4.588;2024-03-06T09:59:13;3.30;;;2.03;;
26908;SDS011;14477;51.038;4.588;2024-03-06T10:02:01;3.73;;;2.40;;
26908;SDS011;14477;51.038;4.588;2024-03-06T10:04:32;3.95;;;2.35;;
26908;SDS011;14477;51.038;4.588;2024-03-06T10:06:59;3.28;;;2.10;;
26908;SDS011;14477;51.038;4.588;2024-03-06T10:09:27;2.50;;;1.85;;
26908;SDS011;14477;51.038;4.588;2024-03-06T10:11:54;3.08;;;1.95;;
26908;SDS011;14477;51.038;4.588;2024-03-06T10:14:22;2.80;;;2.10;;
26908;SDS011;14477;51.038;4.588;2024-03-06T10:16:52;2.90;;;1.75;;
26908;SDS011;14477;51.038;4.588;2024-03-06T10:19:18;2.70;;;2.13;;
26908;SDS011;14477;51.038;4.588;2024-03-06T10:21:46;2.60;;;1.90;;
26908;SDS011;14477;51.038;4.588;2024-03-06T10:24:19;2.58;;;1.73;;
26908;SDS011;14477;51.038;4.588;2024-03-06T10:26:45;1.83;;;1.60;;
26908;SDS011;14477;51.038;4.588;2024-03-06T10:29:18;2.25;;;1.90;;
26908;SDS011;14477;51.038;4.588;2024-03-06T10:32:02;2.35;;;1.55;;
26908;SDS011;14477;51.038;4.588;2024-03-06T10:34:28;1.73;;;1.60;;
26908;SDS011;14477;51.038;4.588;2024-03-06T10:36:55;2.05;;;1.60;;
26908;SDS011;14477;51.038;4.588;2024-03-06T10:39:22;2.47;;;1.60;;
26908;SDS011;14477;51.038;4.588;2024-03-06T10:41:51;1.92;;;1.70;;
26908;SDS011;14477;51.038;4.588;2024-03-06T10:44:20;1.98;;;1.73;;
26908;SDS011;14477;51.038;4.588;2024-03-06T10:50:15;1.65;;;1.55;;
26908;SDS011;14477;51.038;4.588;2024-03-06T10:52:42;1.50;;;1.40;;
26908;SDS011;14477;51.038;4.588;2024-03-06T10:55:12;1.85;;;1.30;;
26908;SDS011;14477;51.038;4.588;2024-03-06T10:57:38;2.97;;;2.10;;
26908;SDS011;14477;51.038;4.588;2024-03-06T11:00:07;2.50;;;1.83;;
26908;SDS011;14477;51.038;4.588;2024-03-06T11:02:33;2.40;;;1.85;;
26908;SDS011;14477;51.038;4.588;2024-03-06T11:05:01;2.60;;;1.80;;
26908;SDS011;14477;51.038;4.588;2024-03-06T11:07:30;2.05;;;1.75;;
26908;SDS011;14477;51.038;4.588;2024-03-06T11:09:58;2.22;;;1.95;;
26908;SDS011;14477;51.038;4.588;2024-03-06T11:12:35;2.20;;;1.70;;
26908;SDS011;14477;51.038;4.588;2024-03-06T11:15:13;2.33;;;1.90;;
26908;SDS011;14477;51.038;4.588;2024-03-06T11:17:41;2.40;;;2.00;;
26908;SDS011;14477;51.038;4.588;2024-03-06T11:20:08;2.30;;;2.00;;
26908;SDS011;14477;51.038;4.588;2024-03-06T11:28:11;1.97;;;1.50;;
26908;SDS011;14477;51.038;4.588;2024-03-06T11:30:44;2.10;;;1.77;;
26908;SDS011;14477;51.038;4.588;2024-03-06T11:33:19;2.35;;;1.77;;
26908;SDS011;14477;51.038;4.588;2024-03-06T11:38:40;2.00;;;1.70;;
26908;SDS011;14477;51.038;4.588;2024-03-06T11:41:06;2.58;;;2.03;;
26908;SDS011;14477;51.038;4.588;2024-03-06T11:43:33;2.70;;;2.03;;
26908;SDS011;14477;51.038;4.588;2024-03-06T11:46:11;3.25;;;2.00;;
26908;SDS011;14477;51.038;4.588;2024-03-06T11:48:37;2.25;;;1.90;;
26908;SDS011;14477;51.038;4.588;2024-03-06T11:51:04;2.70;;;1.67;;
26908;SDS011;14477;51.038;4.588;2024-03-06T11:53:30;2.90;;;1.73;;
26908;SDS011;14477;51.038;4.588;2024-03-06T11:56:00;3.13;;;2.08;;
26908;SDS011;14477;51.038;4.588;2024-03-06T11:58:26;2.75;;;2.10;;
26908;SDS011;14477;51.038;4.588;2024-03-06T12:00:52;2.67;;;1.77;;
26908;SDS011;14477;51.038;4.588;2024-03-06T12:03:19;3.55;;;2.00;;
26908;SDS011;14477;51.038;4.588;2024-03-06T12:05:45;3.03;;;2.15;;
26908;SDS011;14477;51.038;4.588;2024-03-06T12:08:15;2.87;;;1.80;;
26908;SDS011;14477;51.038;4.588;2024-03-06T12:10:41;3.03;;;2.05;;
26908;SDS011;14477;51.038;4.588;2024-03-06T12:13:06;2.50;;;1.98;;
26908;SDS011;14477;51.038;4.588;2024-03-06T12:15:32;3.20;;;2.00;;
26908;SDS011;14477;51.038;4.588;2024-03-06T12:17:58;3.10;;;2.25;;
26908;SDS011;14477;51.038;4.588;2024-03-06T12:20:24;2.75;;;1.95;;
26908;SDS011;14477;51.038;4.588;2024-03-06T12:25:18;3.30;;;2.20;;
26908;SDS011;14477;51.038;4.588;2024-03-06T12:27:47;2.30;;;1.90;;
26908;SDS011;14477;51.038;4.588;2024-03-06T12:30:16;4.30;;;2.00;;
26908;SDS011;14477;51.038;4.588;2024-03-06T12:32:43;3.13;;;2.08;;
26908;SDS011;14477;51.038;4.588;2024-03-06T12:35:10;2.97;;;1.97;;
26908;SDS011;14477;51.038;4.588;2024-03-06T12:37:36;2.70;;;1.80;;
26908;SDS011;14477;51.038;4.588;2024-03-06T12:40:05;2.42;;;1.73;;
26908;SDS011;14477;51.038;4.588;2024-03-06T12:42:37;2.10;;;1.53;;
26908;SDS011;14477;51.038;4.588;2024-03-06T12:45:03;3.90;;;2.00;;
26908;SDS011;14477;51.038;4.588;2024-03-06T12:47:29;2.72;;;1.95;;
26908;SDS011;14477;51.038;4.588;2024-03-06T12:49:55;2.97;;;1.73;;
26908;SDS011;14477;51.038;4.588;2024-03-06T12:52:20;3.03;;;1.73;;
26908;SDS011;14477;51.038;4.588;2024-03-06T12:54:46;3.42;;;1.90;;
26908;SDS011;14477;51.038;4.588;2024-03-06T12:57:12;3.23;;;1.90;;
26908;SDS011;14477;51.038;4.588;2024-03-06T12:59:37;3.97;;;2.00;;
26908;SDS011;14477;51.038;4.588;2024-03-06T13:02:03;2.65;;;1.80;;
26908;SDS011;14477;51.038;4.588;2024-03-06T13:04:29;3.70;;;1.90;;
26908;SDS011;14477;51.038;4.588;2024-03-06T13:06:55;2.83;;;1.83;;
26908;SDS011;14477;51.038;4.588;2024-03-06T13:09:22;3.08;;;1.80;;
26908;SDS011;14477;51.038;4.588;2024-03-06T13:11:52;3.00;;;1.90;;
26908;SDS011;14477;51.038;4.588;2024-03-06T13:14:19;2.65;;;1.90;;
26908;SDS011;14477;51.038;4.588;2024-03-06T13:16:45;2.07;;;1.60;;
26908;SDS011;14477;51.038;4.588;2024-03-06T13:19:13;1.80;;;1.40;;
26908;SDS011;14477;51.038;4.588;2024-03-06T13:21:39;1.70;;;1.50;;
26908;SDS011;14477;51.038;4.588;2024-03-06T13:24:05;1.90;;;1.50;;
26908;SDS011;14477;51.038;4.588;2024-03-06T13:26:31;2.17;;;1.55;;
26908;SDS011;14477;51.038;4.588;2024-03-06T13:28:57;1.88;;;1.50;;
26908;SDS011;14477;51.038;4.588;2024-03-06T13:31:22;1.80;;;1.40;;
26908;SDS011;14477;51.038;4.588;2024-03-06T13:33:48;3.47;;;1.50;;
26908;SDS011;14477;51.038;4.588;2024-03-06T13:36:14;1.97;;;1.60;;
26908;SDS011;14477;51.038;4.588;2024-03-06T13:38:40;1.90;;;1.40;;
26908;SDS011;14477;51.038;4.588;2024-03-06T13:41:06;1.95;;;1.33;;
26908;SDS011;14477;51.038;4.588;2024-03-06T13:43:32;1.87;;;1.60;;
26908;SDS011;14477;51.038;4.588;2024-03-06T13:45:57;2.50;;;1.48;;
26908;SDS011;14477;51.038;4.588;2024-03-06T13:48:23;2.15;;;1.70;;
26908;SDS011;14477;51.038;4.588;2024-03-06T13:50:49;2.15;;;1.50;;
26908;SDS011;14477;51.038;4.588;2024-03-06T13:53:15;2.73;;;1.57;;
26908;SDS011;14477;51.038;4.588;2024-03-06T13:55:41;1.98;;;1.50;;
26908;SDS011;14477;51.038;4.588;2024-03-06T13:58:07;2.43;;;1.53;;
26908;SDS011;14477;51.038;4.588;2024-03-06T14:00:33;2.20;;;1.70;;
26908;SDS011;14477;51.038;4.588;2024-03-06T14:03:00;2.38;;;1.70;;
26908;SDS011;14477;51.038;4.588;2024-03-06T14:05:26;2.00;;;1.60;;
26908;SDS011;14477;51.038;4.588;2024-03-06T14:07:52;2.77;;;1.90;;
26908;SDS011;14477;51.038;4.588;2024-03-06T14:10:18;2.85;;;1.80;;
26908;SDS011;14477;51.038;4.588;2024-03-06T14:12:45;2.47;;;1.80;;
26908;SDS011;14477;51.038;4.588;2024-03-06T14:15:11;2.42;;;1.63;;
26908;SDS011;14477;51.038;4.588;2024-03-06T14:17:37;2.07;;;1.57;;
26908;SDS011;14477;51.038;4.588;2024-03-06T14:20:03;2.30;;;1.60;;
26908;SDS011;14477;51.038;4.588;2024-03-06T14:22:30;2.45;;;1.60;;
26908;SDS011;14477;51.038;4.588;2024-03-06T14:24:55;1.80;;;1.33;;
26908;SDS011;14477;51.038;4.588;2024-03-06T14:27:21;2.03;;;1.20;;
26908;SDS011;14477;51.038;4.588;2024-03-06T14:29:50;1.42;;;1.10;;
26908;SDS011;14477;51.038;4.588;2024-03-06T14:32:17;1.30;;;1.00;;
26908;SDS011;14477;51.038;4.588;2024-03-06T14:34:44;3.15;;;0.90;;
26908;SDS011;14477;51.038;4.588;2024-03-06T14:37:10;1.30;;;1.00;;
26908;SDS011;14477;51.038;4.588;2024-03-06T14:39:36;1.70;;;0.85;;
26908;SDS011;14477;51.038;4.588;2024-03-06T14:42:02;1.07;;;0.90;;
26908;SDS011;14477;51.038;4.588;2024-03-06T14:44:29;1.05;;;0.95;;
26908;SDS011;14477;51.038;4.588;2024-03-06T14:46:55;2.00;;;0.93;;
26908;SDS011;14477;51.038;4.588;2024-03-06T14:49:22;2.20;;;1.08;;
26908;SDS011;14477;51.038;4.588;2024-03-06T14:51:47;1.87;;;1.17;;
26908;SDS011;14477;51.038;4.588;2024-03-06T14:54:13;1.95;;;1.10;;
26908;SDS011;14477;51.038;4.588;2024-03-06T14:56:39;1.60;;;0.90;;
26908;SDS011;14477;51.038;4.588;2024-03-06T14:59:06;1.38;;;0.90;;
26908;SDS011;14477;51.038;4.588;2024-03-06T15:01:32;1.00;;;0.80;;
26908;SDS011;14477;51.038;4.588;2024-03-06T15:03:58;1.00;;;0.90;;